sensor_id;sensor_type;location;lat;lon;timestamp;temperature;humidity
33815;DHT22;20121;51.910;8.406;2023-09-19T00:01:42;15.80;99.90
33815;DHT22;20121;51.910;8.406;2023-09-19T00:04:13;15.70;99.90
33815;DHT22;20121;51.910;8.406;2023-09-19T00:06:40;15.80;99.90
33815;DHT22;20121;51.910;8.406;2023-09-19T00:09:05;15.80;99.90
33815;DHT22;20121;51.910;8.406;2023-09-19T00:11:36;15.80;99.90
33815;DHT22;20121;51.910;8.406;2023-09-19T00:14:02;15.50;99.90
33815;DHT22;20121;51.910;8.406;2023-09-19T00:16:28;15.80;99.90
33815;DHT22;20121;51.910;8.406;2023-09-19T00:18:54;15.80;99.90
33815;DHT22;20121;51.910;8.406;2023-09-19T00:21:20;15.60;99.90
33815;DHT22;20121;51.910;8.406;2023-09-19T00:23:46;15.40;99.90
33815;DHT22;20121;51.910;8.406;2023-09-19T00:26:11;16.70;99.90
33815;DHT22;20121;51.910;8.406;2023-09-19T00:28:38;15.80;99.90
33815;DHT22;20121;51.910;8.406;2023-09-19T00:31:07;15.90;99.90
33815;DHT22;20121;51.910;8.406;2023-09-19T00:33:34;15.90;99.90
33815;DHT22;20121;51.910;8.406;2023-09-19T00:35:59;15.90;99.90
33815;DHT22;20121;51.910;8.406;2023-09-19T00:38:27;15.70;99.90
33815;DHT22;20121;51.910;8.406;2023-09-19T00:40:54;15.90;99.90
33815;DHT22;20121;51.910;8.406;2023-09-19T00:43:20;16.30;99.90
33815;DHT22;20121;51.910;8.406;2023-09-19T00:45:48;15.90;99.90
33815;DHT22;20121;51.910;8.406;2023-09-19T00:48:15;16.00;99.90
33815;DHT22;20121;51.910;8.406;2023-09-19T00:50:42;15.90;99.90
33815;DHT22;20121;51.910;8.406;2023-09-19T00:53:09;15.90;99.90
33815;DHT22;20121;51.910;8.406;2023-09-19T00:55:36;15.90;99.90
33815;DHT22;20121;51.910;8.406;2023-09-19T00:58:03;15.40;99.90
33815;DHT22;20121;51.910;8.406;2023-09-19T01:00:28;15.80;99.90
33815;DHT22;20121;51.910;8.406;2023-09-19T01:02:54;15.90;99.90
33815;DHT22;20121;51.910;8.406;2023-09-19T01:05:21;15.80;99.90
33815;DHT22;20121;51.910;8.406;2023-09-19T01:07:46;15.90;99.90
33815;DHT22;20121;51.910;8.406;2023-09-19T01:10:17;15.40;99.90
33815;DHT22;20121;51.910;8.406;2023-09-19T01:13:18;15.80;99.90
33815;DHT22;20121;51.910;8.406;2023-09-19T01:16:15;15.80;99.90
33815;DHT22;20121;51.910;8.406;2023-09-19T01:25:04;15.80;99.90
33815;DHT22;20121;51.910;8.406;2023-09-19T01:27:53;15.80;99.90
33815;DHT22;20121;51.910;8.406;2023-09-19T01:30:27;15.80;99.90
33815;DHT22;20121;51.910;8.406;2023-09-19T01:32:59;15.80;99.90
33815;DHT22;20121;51.910;8.406;2023-09-19T01:35:25;15.80;99.90
33815;DHT22;20121;51.910;8.406;2023-09-19T01:37:51;15.80;99.90
33815;DHT22;20121;51.910;8.406;2023-09-19T01:40:20;15.90;99.90
33815;DHT22;20121;51.910;8.406;2023-09-19T01:43:04;15.80;99.90
33815;DHT22;20121;51.910;8.406;2023-09-19T01:46:17;15.80;99.90
33815;DHT22;20121;51.910;8.406;2023-09-19T01:48:51;15.80;99.90
33815;DHT22;20121;51.910;8.406;2023-09-19T01:51:25;15.50;99.90
33815;DHT22;20121;51.910;8.406;2023-09-19T01:54:02;15.80;99.90
33815;DHT22;20121;51.910;8.406;2023-09-19T01:56:38;15.80;99.90
33815;DHT22;20121;51.910;8.406;2023-09-19T01:59:15;15.80;99.90
33815;DHT22;20121;51.910;8.406;2023-09-19T02:01:42;15.80;99.90
33815;DHT22;20121;51.910;8.406;2023-09-19T02:04:10;15.70;99.90
33815;DHT22;20121;51.910;8.406;2023-09-19T02:06:40;15.80;99.90
33815;DHT22;20121;51.910;8.406;2023-09-19T02:09:06;16.10;99.90
33815;DHT22;20121;51.910;8.406;2023-09-19T02:11:32;15.90;99.90
33815;DHT22;20121;51.910;8.406;2023-09-19T02:13:58;15.70;99.90
33815;DHT22;20121;51.910;8.406;2023-09-19T02:16:25;15.80;99.90
33815;DHT22;20121;51.910;8.406;2023-09-19T02:18:50;15.70;99.90
33815;DHT22;20121;51.910;8.406;2023-09-19T02:21:17;15.60;99.90
33815;DHT22;20121;51.910;8.406;2023-09-19T02:23:44;15.60;99.90
33815;DHT22;20121;51.910;8.406;2023-09-19T02:26:10;15.50;99.90
33815;DHT22;20121;51.910;8.406;2023-09-19T02:28:37;15.60;99.90
33815;DHT22;20121;51.910;8.406;2023-09-19T02:31:03;15.70;99.90
33815;DHT22;20121;51.910;8.406;2023-09-19T02:33:31;15.60;99.90
33815;DHT22;20121;51.910;8.406;2023-09-19T02:35:58;15.60;99.90
33815;DHT22;20121;51.910;8.406;2023-09-19T02:38:25;15.60;99.90
33815;DHT22;20121;51.910;8.406;2023-09-19T02:40:52;15.60;99.90
33815;DHT22;20121;51.910;8.406;2023-09-19T02:43:18;15.50;99.90
33815;DHT22;20121;51.910;8.406;2023-09-19T02:45:45;15.50;99.90
33815;DHT22;20121;51.910;8.406;2023-09-19T02:48:12;15.20;99.90
33815;DHT22;20121;51.910;8.406;2023-09-19T02:50:37;15.20;99.90
33815;DHT22;20121;51.910;8.406;2023-09-19T02:53:04;15.80;99.90
33815;DHT22;20121;51.910;8.406;2023-09-19T02:55:30;15.40;99.90
33815;DHT22;20121;51.910;8.406;2023-09-19T02:57:57;15.40;99.90
33815;DHT22;20121;51.910;8.406;2023-09-19T03:00:23;15.00;99.90
33815;DHT22;20121;51.910;8.406;2023-09-19T03:02:50;15.40;99.90
33815;DHT22;20121;51.910;8.406;2023-09-19T03:05:17;14.90;99.90
33815;DHT22;20121;51.910;8.406;2023-09-19T03:07:43;15.40;99.90
33815;DHT22;20121;51.910;8.406;2023-09-19T03:10:11;15.00;99.90
33815;DHT22;20121;51.910;8.406;2023-09-19T03:12:37;15.60;99.90
33815;DHT22;20121;51.910;8.406;2023-09-19T03:15:03;15.30;99.90
33815;DHT22;20121;51.910;8.406;2023-09-19T03:17:30;15.20;99.90
33815;DHT22;20121;51.910;8.406;2023-09-19T03:19:55;15.20;99.90
33815;DHT22;20121;51.910;8.406;2023-09-19T03:22:22;14.80;99.90
33815;DHT22;20121;51.910;8.406;2023-09-19T03:24:50;15.20;99.90
33815;DHT22;20121;51.910;8.406;2023-09-19T03:27:15;14.90;99.90
33815;DHT22;20121;51.910;8.406;2023-09-19T03:29:42;15.20;99.90
33815;DHT22;20121;51.910;8.406;2023-09-19T03:32:08;15.20;99.90
33815;DHT22;20121;51.910;8.406;2023-09-19T03:34:37;15.10;99.90
33815;DHT22;20121;51.910;8.406;2023-09-19T03:37:06;14.90;99.90
33815;DHT22;20121;51.910;8.406;2023-09-19T03:39:32;15.10;99.90
33815;DHT22;20121;51.910;8.406;2023-09-19T03:41:58;15.20;99.90
33815;DHT22;20121;51.910;8.406;2023-09-19T03:44:23;14.90;99.90
33815;DHT22;20121;51.910;8.406;2023-09-19T03:46:49;15.00;99.90
33815;DHT22;20121;51.910;8.406;2023-09-19T03:49:14;15.20;99.90
33815;DHT22;20121;51.910;8.406;2023-09-19T03:51:40;14.90;99.90
33815;DHT22;20121;51.910;8.406;2023-09-19T03:54:07;14.80;99.90
33815;DHT22;20121;51.910;8.406;2023-09-19T03:56:33;14.90;99.90
33815;DHT22;20121;51.910;8.406;2023-09-19T03:58:59;14.90;99.90
33815;DHT22;20121;51.910;8.406;2023-09-19T04:01:24;15.10;99.90
33815;DHT22;20121;51.910;8.406;2023-09-19T04:03:51;14.80;99.90
33815;DHT22;20121;51.910;8.406;2023-09-19T04:06:18;14.70;99.90
33815;DHT22;20121;51.910;8.406;2023-09-19T04:08:44;14.40;99.90
33815;DHT22;20121;51.910;8.406;2023-09-19T04:11:11;14.70;99.90
33815;DHT22;20121;51.910;8.406;2023-09-19T04:13:36;14.70;99.90
33815;DHT22;20121;51.910;8.406;2023-09-19T04:16:03;14.60;99.90
33815;DHT22;20121;51.910;8.406;2023-09-19T04:18:29;14.60;99.90
33815;DHT22;20121;51.910;8.406;2023-09-19T04:20:58;14.60;99.90
33815;DHT22;20121;51.910;8.406;2023-09-19T04:23:24;14.50;99.90
33815;DHT22;20121;51.910;8.406;2023-09-19T04:25:49;14.60;99.90
33815;DHT22;20121;51.910;8.406;2023-09-19T04:28:16;14.40;99.90
33815;DHT22;20121;51.910;8.406;2023-09-19T04:30:41;14.50;99.90
33815;DHT22;20121;51.910;8.406;2023-09-19T04:35:34;14.50;99.90
33815;DHT22;20121;51.910;8.406;2023-09-19T04:38:00;14.60;99.90
33815;DHT22;20121;51.910;8.406;2023-09-19T04:40:26;14.60;99.90
33815;DHT22;20121;51.910;8.406;2023-09-19T04:42:56;14.40;99.90
33815;DHT22;20121;51.910;8.406;2023-09-19T04:45:25;14.70;99.90
33815;DHT22;20121;51.910;8.406;2023-09-19T04:47:52;14.40;99.90
33815;DHT22;20121;51.910;8.406;2023-09-19T04:50:18;14.20;99.90
33815;DHT22;20121;51.910;8.406;2023-09-19T04:52:44;14.30;99.90
33815;DHT22;20121;51.910;8.406;2023-09-19T04:55:14;14.20;99.90
33815;DHT22;20121;51.910;8.406;2023-09-19T04:57:48;14.30;99.90
33815;DHT22;20121;51.910;8.406;2023-09-19T05:00:15;14.30;99.90
33815;DHT22;20121;51.910;8.406;2023-09-19T05:02:42;14.30;99.90
33815;DHT22;20121;51.910;8.406;2023-09-19T05:05:09;14.60;99.90
33815;DHT22;20121;51.910;8.406;2023-09-19T05:07:36;14.20;99.90
33815;DHT22;20121;51.910;8.406;2023-09-19T05:10:03;14.20;99.90
33815;DHT22;20121;51.910;8.406;2023-09-19T05:12:33;14.20;99.90
33815;DHT22;20121;51.910;8.406;2023-09-19T05:14:59;14.20;99.90
33815;DHT22;20121;51.910;8.406;2023-09-19T05:17:26;14.10;99.90
33815;DHT22;20121;51.910;8.406;2023-09-19T05:19:52;13.90;99.90
33815;DHT22;20121;51.910;8.406;2023-09-19T05:22:18;13.70;99.90
33815;DHT22;20121;51.910;8.406;2023-09-19T05:24:44;14.10;99.90
33815;DHT22;20121;51.910;8.406;2023-09-19T05:27:14;14.20;99.90
33815;DHT22;20121;51.910;8.406;2023-09-19T05:29:42;14.10;99.90
33815;DHT22;20121;51.910;8.406;2023-09-19T05:32:08;14.10;99.90
33815;DHT22;20121;51.910;8.406;2023-09-19T05:34:34;14.10;99.90
33815;DHT22;20121;51.910;8.406;2023-09-19T05:37:00;14.10;99.90
33815;DHT22;20121;51.910;8.406;2023-09-19T05:39:25;14.20;99.90
33815;DHT22;20121;51.910;8.406;2023-09-19T05:41:51;13.80;99.90
33815;DHT22;20121;51.910;8.406;2023-09-19T05:44:17;14.10;99.90
33815;DHT22;20121;51.910;8.406;2023-09-19T05:46:42;14.10;99.90
33815;DHT22;20121;51.910;8.406;2023-09-19T05:49:08;14.10;99.90
33815;DHT22;20121;51.910;8.406;2023-09-19T05:51:34;14.00;99.90
33815;DHT22;20121;51.910;8.406;2023-09-19T05:54:00;14.10;99.90
33815;DHT22;20121;51.910;8.406;2023-09-19T05:56:26;13.90;99.90
33815;DHT22;20121;51.910;8.406;2023-09-19T05:58:52;14.10;99.90
33815;DHT22;20121;51.910;8.406;2023-09-19T06:01:19;14.20;99.90
33815;DHT22;20121;51.910;8.406;2023-09-19T06:03:44;14.20;99.90
33815;DHT22;20121;51.910;8.406;2023-09-19T06:08:36;14.20;99.90
33815;DHT22;20121;51.910;8.406;2023-09-19T06:11:01;14.30;99.90
33815;DHT22;20121;51.910;8.406;2023-09-19T06:13:30;14.80;99.90
33815;DHT22;20121;51.910;8.406;2023-09-19T06:15:59;14.30;99.90
33815;DHT22;20121;51.910;8.406;2023-09-19T06:18:31;14.30;99.90
33815;DHT22;20121;51.910;8.406;2023-09-19T06:20:59;14.40;99.90
33815;DHT22;20121;51.910;8.406;2023-09-19T06:23:25;14.90;99.90
33815;DHT22;20121;51.910;8.406;2023-09-19T06:25:52;14.50;99.90
33815;DHT22;20121;51.910;8.406;2023-09-19T06:28:19;14.50;99.90
33815;DHT22;20121;51.910;8.406;2023-09-19T06:30:49;14.60;99.90
33815;DHT22;20121;51.910;8.406;2023-09-19T06:33:15;14.70;99.90
33815;DHT22;20121;51.910;8.406;2023-09-19T06:35:41;14.70;99.90
33815;DHT22;20121;51.910;8.406;2023-09-19T06:38:07;14.80;99.90
33815;DHT22;20121;51.910;8.406;2023-09-19T06:40:34;14.80;99.90
33815;DHT22;20121;51.910;8.406;2023-09-19T06:43:00;14.80;99.90
33815;DHT22;20121;51.910;8.406;2023-09-19T06:45:27;14.50;99.90
33815;DHT22;20121;51.910;8.406;2023-09-19T06:47:53;14.90;99.90
33815;DHT22;20121;51.910;8.406;2023-09-19T06:50:23;15.30;99.90
33815;DHT22;20121;51.910;8.406;2023-09-19T06:52:50;14.90;99.90
33815;DHT22;20121;51.910;8.406;2023-09-19T06:55:21;15.00;99.90
33815;DHT22;20121;51.910;8.406;2023-09-19T06:57:50;15.00;99.90
33815;DHT22;20121;51.910;8.406;2023-09-19T07:00:16;15.00;99.90
33815;DHT22;20121;51.910;8.406;2023-09-19T07:03:05;15.00;99.90
33815;DHT22;20121;51.910;8.406;2023-09-19T07:05:34;15.00;99.90
33815;DHT22;20121;51.910;8.406;2023-09-19T07:08:05;15.10;99.90
33815;DHT22;20121;51.910;8.406;2023-09-19T07:10:32;14.70;99.90
33815;DHT22;20121;51.910;8.406;2023-09-19T07:13:06;15.00;99.90
33815;DHT22;20121;51.910;8.406;2023-09-19T07:15:34;15.10;99.90
33815;DHT22;20121;51.910;8.406;2023-09-19T07:18:06;15.00;99.90
33815;DHT22;20121;51.910;8.406;2023-09-19T07:20:32;14.90;99.90
33815;DHT22;20121;51.910;8.406;2023-09-19T07:23:01;15.00;99.90
33815;DHT22;20121;51.910;8.406;2023-09-19T07:25:30;15.40;99.90
33815;DHT22;20121;51.910;8.406;2023-09-19T07:27:58;15.00;99.90
33815;DHT22;20121;51.910;8.406;2023-09-19T07:30:27;15.10;99.90
33815;DHT22;20121;51.910;8.406;2023-09-19T07:32:53;15.10;99.90
33815;DHT22;20121;51.910;8.406;2023-09-19T07:35:19;15.10;99.90
33815;DHT22;20121;51.910;8.406;2023-09-19T07:37:48;15.20;99.90
33815;DHT22;20121;51.910;8.406;2023-09-19T07:40:21;15.20;99.90
33815;DHT22;20121;51.910;8.406;2023-09-19T07:45:16;15.30;99.90
33815;DHT22;20121;51.910;8.406;2023-09-19T07:47:45;16.20;99.90
33815;DHT22;20121;51.910;8.406;2023-09-19T07:50:18;15.90;99.90
33815;DHT22;20121;51.910;8.406;2023-09-19T07:52:45;15.20;99.90
33815;DHT22;20121;51.910;8.406;2023-09-19T07:55:11;16.20;99.90
33815;DHT22;20121;51.910;8.406;2023-09-19T07:57:37;16.30;99.90
33815;DHT22;20121;51.910;8.406;2023-09-19T08:00:03;16.30;99.90
33815;DHT22;20121;51.910;8.406;2023-09-19T08:02:36;15.90;99.90
33815;DHT22;20121;51.910;8.406;2023-09-19T08:05:03;16.30;99.90
33815;DHT22;20121;51.910;8.406;2023-09-19T08:07:32;15.90;99.90
33815;DHT22;20121;51.910;8.406;2023-09-19T08:09:58;16.20;99.90
33815;DHT22;20121;51.910;8.406;2023-09-19T08:12:24;15.90;99.90
33815;DHT22;20121;51.910;8.406;2023-09-19T08:14:50;15.90;99.90
33815;DHT22;20121;51.910;8.406;2023-09-19T08:17:16;16.10;99.90
33815;DHT22;20121;51.910;8.406;2023-09-19T08:19:42;15.80;99.90
33815;DHT22;20121;51.910;8.406;2023-09-19T08:22:10;16.60;99.90
33815;DHT22;20121;51.910;8.406;2023-09-19T08:24:36;16.30;99.90
33815;DHT22;20121;51.910;8.406;2023-09-19T08:27:04;16.80;99.90
33815;DHT22;20121;51.910;8.406;2023-09-19T08:29:30;17.00;99.90
33815;DHT22;20121;51.910;8.406;2023-09-19T08:31:59;17.10;99.90
33815;DHT22;20121;51.910;8.406;2023-09-19T08:34:25;16.90;99.90
33815;DHT22;20121;51.910;8.406;2023-09-19T08:36:52;17.00;99.90
33815;DHT22;20121;51.910;8.406;2023-09-19T08:39:22;16.90;99.90
33815;DHT22;20121;51.910;8.406;2023-09-19T08:41:48;17.20;99.90
33815;DHT22;20121;51.910;8.406;2023-09-19T08:44:14;16.60;99.90
33815;DHT22;20121;51.910;8.406;2023-09-19T08:46:41;17.30;99.90
33815;DHT22;20121;51.910;8.406;2023-09-19T08:49:28;16.90;99.90
33815;DHT22;20121;51.910;8.406;2023-09-19T08:52:19;16.90;99.90
33815;DHT22;20121;51.910;8.406;2023-09-19T08:54:48;16.70;99.90
33815;DHT22;20121;51.910;8.406;2023-09-19T08:57:17;17.20;99.90
33815;DHT22;20121;51.910;8.406;2023-09-19T08:59:48;17.50;99.90
33815;DHT22;20121;51.910;8.406;2023-09-19T09:02:15;17.40;99.90
33815;DHT22;20121;51.910;8.406;2023-09-19T09:04:45;16.90;99.90
33815;DHT22;20121;51.910;8.406;2023-09-19T09:07:12;17.40;99.90
33815;DHT22;20121;51.910;8.406;2023-09-19T09:09:44;17.30;99.90
33815;DHT22;20121;51.910;8.406;2023-09-19T09:12:14;17.50;99.90
33815;DHT22;20121;51.910;8.406;2023-09-19T09:14:44;17.30;99.90
33815;DHT22;20121;51.910;8.406;2023-09-19T09:17:11;17.50;99.90
33815;DHT22;20121;51.910;8.406;2023-09-19T09:19:37;17.20;99.90
33815;DHT22;20121;51.910;8.406;2023-09-19T09:22:10;17.60;99.90
33815;DHT22;20121;51.910;8.406;2023-09-19T09:24:37;17.30;99.90
33815;DHT22;20121;51.910;8.406;2023-09-19T09:27:06;17.80;99.90
33815;DHT22;20121;51.910;8.406;2023-09-19T09:29:44;17.60;99.90
33815;DHT22;20121;51.910;8.406;2023-09-19T09:32:29;17.80;99.90
33815;DHT22;20121;51.910;8.406;2023-09-19T09:34:58;18.10;99.90
33815;DHT22;20121;51.910;8.406;2023-09-19T09:37:24;17.90;99.90
33815;DHT22;20121;51.910;8.406;2023-09-19T09:40:00;17.60;99.90
33815;DHT22;20121;51.910;8.406;2023-09-19T09:42:44;17.40;99.90
33815;DHT22;20121;51.910;8.406;2023-09-19T09:45:19;17.70;99.90
33815;DHT22;20121;51.910;8.406;2023-09-19T09:47:53;17.80;99.90
33815;DHT22;20121;51.910;8.406;2023-09-19T09:52:57;18.40;99.90
33815;DHT22;20121;51.910;8.406;2023-09-19T09:58:24;17.90;99.90
33815;DHT22;20121;51.910;8.406;2023-09-19T10:00:57;18.40;99.90
33815;DHT22;20121;51.910;8.406;2023-09-19T10:06:12;18.40;99.90
33815;DHT22;20121;51.910;8.406;2023-09-19T10:09:04;18.40;99.90
33815;DHT22;20121;51.910;8.406;2023-09-19T10:11:42;18.00;99.90
33815;DHT22;20121;51.910;8.406;2023-09-19T10:14:09;18.00;99.90
33815;DHT22;20121;51.910;8.406;2023-09-19T10:16:45;18.10;99.90
33815;DHT22;20121;51.910;8.406;2023-09-19T10:19:16;18.70;99.90
33815;DHT22;20121;51.910;8.406;2023-09-19T10:21:44;18.70;99.90
33815;DHT22;20121;51.910;8.406;2023-09-19T10:24:10;18.10;99.90
33815;DHT22;20121;51.910;8.406;2023-09-19T10:26:37;18.60;99.90
33815;DHT22;20121;51.910;8.406;2023-09-19T10:29:06;18.40;99.90
33815;DHT22;20121;51.910;8.406;2023-09-19T10:31:33;18.20;99.90
33815;DHT22;20121;51.910;8.406;2023-09-19T10:34:03;18.50;99.90
33815;DHT22;20121;51.910;8.406;2023-09-19T10:36:33;18.20;99.90
33815;DHT22;20121;51.910;8.406;2023-09-19T10:39:02;18.60;99.90
33815;DHT22;20121;51.910;8.406;2023-09-19T10:41:32;18.40;99.90
33815;DHT22;20121;51.910;8.406;2023-09-19T10:44:03;18.90;99.90
33815;DHT22;20121;51.910;8.406;2023-09-19T10:46:34;18.40;99.90
33815;DHT22;20121;51.910;8.406;2023-09-19T10:49:01;18.90;99.90
33815;DHT22;20121;51.910;8.406;2023-09-19T10:51:30;18.90;99.90
33815;DHT22;20121;51.910;8.406;2023-09-19T10:54:06;18.40;99.90
33815;DHT22;20121;51.910;8.406;2023-09-19T10:56:38;18.50;99.90
33815;DHT22;20121;51.910;8.406;2023-09-19T10:59:15;18.60;99.90
33815;DHT22;20121;51.910;8.406;2023-09-19T11:01:52;19.10;99.90
33815;DHT22;20121;51.910;8.406;2023-09-19T11:04:34;18.90;99.90
33815;DHT22;20121;51.910;8.406;2023-09-19T11:09:50;19.00;99.90
33815;DHT22;20121;51.910;8.406;2023-09-19T11:15:02;19.10;99.90
33815;DHT22;20121;51.910;8.406;2023-09-19T11:17:37;19.20;99.90
33815;DHT22;20121;51.910;8.406;2023-09-19T11:30:48;19.60;99.90
33815;DHT22;20121;51.910;8.406;2023-09-19T11:33:32;19.40;99.90
33815;DHT22;20121;51.910;8.406;2023-09-19T11:36:16;19.10;99.90
33815;DHT22;20121;51.910;8.406;2023-09-19T11:46:27;19.20;99.90
33815;DHT22;20121;51.910;8.406;2023-09-19T11:48:54;19.40;99.90
33815;DHT22;20121;51.910;8.406;2023-09-19T11:51:21;20.00;99.90
33815;DHT22;20121;51.910;8.406;2023-09-19T11:53:55;19.90;99.90
33815;DHT22;20121;51.910;8.406;2023-09-19T11:56:22;19.90;99.90
33815;DHT22;20121;51.910;8.406;2023-09-19T11:58:50;19.70;99.90
33815;DHT22;20121;51.910;8.406;2023-09-19T12:01:30;19.80;99.90
33815;DHT22;20121;51.910;8.406;2023-09-19T12:03:58;19.70;99.90
33815;DHT22;20121;51.910;8.406;2023-09-19T12:06:26;19.70;99.90
33815;DHT22;20121;51.910;8.406;2023-09-19T12:08:52;19.80;99.90
33815;DHT22;20121;51.910;8.406;2023-09-19T12:11:20;20.20;99.90
33815;DHT22;20121;51.910;8.406;2023-09-19T12:13:47;19.90;99.90
33815;DHT22;20121;51.910;8.406;2023-09-19T12:16:20;19.50;99.90
33815;DHT22;20121;51.910;8.406;2023-09-19T12:18:50;21.00;99.90
33815;DHT22;20121;51.910;8.406;2023-09-19T12:21:29;19.90;99.90
33815;DHT22;20121;51.910;8.406;2023-09-19T12:24:11;19.80;99.90
33815;DHT22;20121;51.910;8.406;2023-09-19T12:26:43;19.80;99.90
33815;DHT22;20121;51.910;8.406;2023-09-19T12:29:15;19.70;99.90
33815;DHT22;20121;51.910;8.406;2023-09-19T12:31:57;19.70;99.90
33815;DHT22;20121;51.910;8.406;2023-09-19T12:34:30;20.00;99.90
33815;DHT22;20121;51.910;8.406;2023-09-19T12:39:42;19.80;99.90
33815;DHT22;20121;51.910;8.406;2023-09-19T12:42:12;20.00;99.90
33815;DHT22;20121;51.910;8.406;2023-09-19T12:44:45;19.90;99.90
33815;DHT22;20121;51.910;8.406;2023-09-19T12:47:18;20.20;99.90
33815;DHT22;20121;51.910;8.406;2023-09-19T12:50:09;20.20;99.90
33815;DHT22;20121;51.910;8.406;2023-09-19T12:52:49;19.90;99.90
33815;DHT22;20121;51.910;8.406;2023-09-19T12:55:29;19.90;99.90
33815;DHT22;20121;51.910;8.406;2023-09-19T12:58:13;19.80;99.90
33815;DHT22;20121;51.910;8.406;2023-09-19T13:00:43;20.20;99.90
33815;DHT22;20121;51.910;8.406;2023-09-19T13:05:55;20.10;99.90
33815;DHT22;20121;51.910;8.406;2023-09-19T13:13:27;20.40;99.90
33815;DHT22;20121;51.910;8.406;2023-09-19T13:15:55;20.30;99.90
33815;DHT22;20121;51.910;8.406;2023-09-19T13:18:23;20.10;99.90
33815;DHT22;20121;51.910;8.406;2023-09-19T13:21:08;20.00;99.90
33815;DHT22;20121;51.910;8.406;2023-09-19T13:23:38;20.30;99.90
33815;DHT22;20121;51.910;8.406;2023-09-19T13:26:03;21.20;99.90
33815;DHT22;20121;51.910;8.406;2023-09-19T13:28:33;20.40;99.90
33815;DHT22;20121;51.910;8.406;2023-09-19T13:30:59;20.10;99.90
33815;DHT22;20121;51.910;8.406;2023-09-19T13:33:25;20.20;99.90
33815;DHT22;20121;51.910;8.406;2023-09-19T13:35:51;20.10;99.90
33815;DHT22;20121;51.910;8.406;2023-09-19T13:38:18;20.10;99.90
33815;DHT22;20121;51.910;8.406;2023-09-19T13:40:47;19.90;99.90
33815;DHT22;20121;51.910;8.406;2023-09-19T13:43:13;20.20;99.90
33815;DHT22;20121;51.910;8.406;2023-09-19T13:45:40;20.10;99.90
33815;DHT22;20121;51.910;8.406;2023-09-19T13:48:08;20.10;99.90
33815;DHT22;20121;51.910;8.406;2023-09-19T13:50:37;20.10;99.90
33815;DHT22;20121;51.910;8.406;2023-09-19T13:53:07;20.10;99.90
33815;DHT22;20121;51.910;8.406;2023-09-19T13:55:33;20.10;99.90
33815;DHT22;20121;51.910;8.406;2023-09-19T13:57:59;20.40;99.90
33815;DHT22;20121;51.910;8.406;2023-09-19T14:00:24;20.60;99.90
33815;DHT22;20121;51.910;8.406;2023-09-19T14:02:50;20.10;99.90
33815;DHT22;20121;51.910;8.406;2023-09-19T14:05:16;20.10;99.90
33815;DHT22;20121;51.910;8.406;2023-09-19T14:07:42;20.40;99.90
33815;DHT22;20121;51.910;8.406;2023-09-19T14:10:09;20.20;99.90
33815;DHT22;20121;51.910;8.406;2023-09-19T14:12:36;20.20;99.90
33815;DHT22;20121;51.910;8.406;2023-09-19T14:15:05;20.60;99.90
33815;DHT22;20121;51.910;8.406;2023-09-19T14:17:32;20.20;99.90
33815;DHT22;20121;51.910;8.406;2023-09-19T14:19:58;20.40;99.90
33815;DHT22;20121;51.910;8.406;2023-09-19T14:22:23;20.10;99.90
33815;DHT22;20121;51.910;8.406;2023-09-19T14:24:49;20.60;99.90
33815;DHT22;20121;51.910;8.406;2023-09-19T14:27:15;20.20;99.90
33815;DHT22;20121;51.910;8.406;2023-09-19T14:29:40;20.40;99.90
33815;DHT22;20121;51.910;8.406;2023-09-19T14:32:06;20.60;99.90
33815;DHT22;20121;51.910;8.406;2023-09-19T14:34:32;20.40;99.90
33815;DHT22;20121;51.910;8.406;2023-09-19T14:36:58;21.90;99.90
33815;DHT22;20121;51.910;8.406;2023-09-19T14:39:24;20.00;99.90
33815;DHT22;20121;51.910;8.406;2023-09-19T14:41:50;20.40;99.90
33815;DHT22;20121;51.910;8.406;2023-09-19T14:44:16;20.10;99.90
33815;DHT22;20121;51.910;8.406;2023-09-19T14:46:42;20.60;99.90
33815;DHT22;20121;51.910;8.406;2023-09-19T14:49:09;20.40;99.90
33815;DHT22;20121;51.910;8.406;2023-09-19T14:51:37;20.10;99.90
33815;DHT22;20121;51.910;8.406;2023-09-19T14:54:03;20.30;99.90
33815;DHT22;20121;51.910;8.406;2023-09-19T14:56:29;20.30;99.90
33815;DHT22;20121;51.910;8.406;2023-09-19T14:58:56;20.50;99.90
33815;DHT22;20121;51.910;8.406;2023-09-19T15:01:22;20.20;99.90
33815;DHT22;20121;51.910;8.406;2023-09-19T15:03:48;20.40;99.90
33815;DHT22;20121;51.910;8.406;2023-09-19T15:06:15;20.20;99.90
33815;DHT22;20121;51.910;8.406;2023-09-19T15:08:45;20.00;99.90
33815;DHT22;20121;51.910;8.406;2023-09-19T15:11:13;20.30;99.90
33815;DHT22;20121;51.910;8.406;2023-09-19T15:13:41;20.10;99.90
33815;DHT22;20121;51.910;8.406;2023-09-19T15:16:08;20.10;99.90
33815;DHT22;20121;51.910;8.406;2023-09-19T15:18:38;20.30;99.90
33815;DHT22;20121;51.910;8.406;2023-09-19T15:21:05;19.90;99.90
33815;DHT22;20121;51.910;8.406;2023-09-19T15:23:31;19.90;99.90
33815;DHT22;20121;51.910;8.406;2023-09-19T15:26:06;19.80;99.90
33815;DHT22;20121;51.910;8.406;2023-09-19T15:28:32;19.80;99.90
33815;DHT22;20121;51.910;8.406;2023-09-19T15:31:06;20.00;99.90
33815;DHT22;20121;51.910;8.406;2023-09-19T15:33:33;19.80;99.90
33815;DHT22;20121;51.910;8.406;2023-09-19T15:36:13;20.10;99.90
33815;DHT22;20121;51.910;8.406;2023-09-19T15:39:08;20.00;99.90
33815;DHT22;20121;51.910;8.406;2023-09-19T15:41:40;19.80;99.90
33815;DHT22;20121;51.910;8.406;2023-09-19T15:44:15;19.80;99.90
33815;DHT22;20121;51.910;8.406;2023-09-19T15:46:41;19.70;99.90
33815;DHT22;20121;51.910;8.406;2023-09-19T15:49:07;19.90;99.90
33815;DHT22;20121;51.910;8.406;2023-09-19T15:51:34;19.90;99.90
33815;DHT22;20121;51.910;8.406;2023-09-19T15:54:02;19.90;99.90
33815;DHT22;20121;51.910;8.406;2023-09-19T15:56:33;19.70;99.90
33815;DHT22;20121;51.910;8.406;2023-09-19T16:01:26;19.60;99.90
33815;DHT22;20121;51.910;8.406;2023-09-19T16:03:53;20.00;99.90
33815;DHT22;20121;51.910;8.406;2023-09-19T16:06:23;19.50;99.90
33815;DHT22;20121;51.910;8.406;2023-09-19T16:08:50;19.60;99.90
33815;DHT22;20121;51.910;8.406;2023-09-19T16:11:17;19.50;99.90
33815;DHT22;20121;51.910;8.406;2023-09-19T16:13:43;19.80;99.90
33815;DHT22;20121;51.910;8.406;2023-09-19T16:16:14;20.00;99.90
33815;DHT22;20121;51.910;8.406;2023-09-19T16:18:49;19.90;99.90
33815;DHT22;20121;51.910;8.406;2023-09-19T16:21:16;19.90;99.90
33815;DHT22;20121;51.910;8.406;2023-09-19T16:23:51;19.70;99.90
33815;DHT22;20121;51.910;8.406;2023-09-19T16:26:19;19.80;99.90
33815;DHT22;20121;51.910;8.406;2023-09-19T16:28:47;19.80;99.90
33815;DHT22;20121;51.910;8.406;2023-09-19T16:31:14;19.80;99.90
33815;DHT22;20121;51.910;8.406;2023-09-19T16:33:44;19.50;99.90
33815;DHT22;20121;51.910;8.406;2023-09-19T16:36:11;19.40;99.90
33815;DHT22;20121;51.910;8.406;2023-09-19T16:38:38;19.70;99.90
33815;DHT22;20121;51.910;8.406;2023-09-19T16:41:04;19.40;99.90